Terminal Aerodrome Forecast
Issued by NWS

Home | Current Version | Previous Version | Text Only | Print | Product List | Glossary On
Versions: 1 2 3 4 5 6 7 8 9 10 11 12
556
FTUS43 KJKL 272339
TAFSME
TAF
KSME 272339Z 2800/2824 26009KT P6SM SKC
     FM280600 VRB03KT 4SM BR SKC
     FM280900 VRB03KT 2SM BR SKC
     FM281200 19006KT P6SM FEW250
     FM281800 21010G16KT P6SM FEW035 FEW250=

USA.gov is the U.S. government's official web portal to all federal, state and local government web resources and services.